sensor_id;sensor_type;location;lat;lon;timestamp;pressure;altitude;pressure_sealevel;temperature;humidity
50093;BME280;35974;47.752;10.290;2023-03-18T00:00:09;93512.13;;;3.43;100.00
50093;BME280;35974;47.752;10.290;2023-03-18T00:02:37;93492.84;;;3.14;100.00
50093;BME280;35974;47.752;10.290;2023-03-18T00:05:05;93521.50;;;3.36;100.00
50093;BME280;35974;47.752;10.290;2023-03-18T00:07:34;93525.41;;;3.32;100.00
50093;BME280;35974;47.752;10.290;2023-03-18T00:10:02;93501.66;;;3.28;100.00
50093;BME280;35974;47.752;10.290;2023-03-18T00:12:28;93484.09;;;3.15;100.00
50093;BME280;35974;47.752;10.290;2023-03-18T00:14:55;93501.69;;;3.20;100.00
50093;BME280;35974;47.752;10.290;2023-03-18T00:17:21;93501.88;;;3.10;100.00
50093;BME280;35974;47.752;10.290;2023-03-18T00:19:48;93521.25;;;3.22;100.00
50093;BME280;35974;47.752;10.290;2023-03-18T00:22:15;93509.00;;;3.08;100.00
50093;BME280;35974;47.752;10.290;2023-03-18T00:24:42;93504.09;;;3.21;100.00
50093;BME280;35974;47.752;10.290;2023-03-18T00:27:09;93525.06;;;3.35;100.00
50093;BME280;35974;47.752;10.290;2023-03-18T00:29:35;93506.16;;;2.95;100.00
50093;BME280;35974;47.752;10.290;2023-03-18T00:32:03;93507.72;;;3.04;100.00
50093;BME280;35974;47.752;10.290;2023-03-18T00:34:29;93495.75;;;3.11;100.00
50093;BME280;35974;47.752;10.290;2023-03-18T00:36:55;93523.16;;;3.28;100.00
50093;BME280;35974;47.752;10.290;2023-03-18T00:39:23;93490.28;;;3.06;100.00
50093;BME280;35974;47.752;10.290;2023-03-18T00:41:54;93534.47;;;3.27;100.00
50093;BME280;35974;47.752;10.290;2023-03-18T00:44:21;93472.88;;;2.91;100.00
50093;BME280;35974;47.752;10.290;2023-03-18T00:46:48;93514.19;;;3.08;100.00
50093;BME280;35974;47.752;10.290;2023-03-18T00:49:14;93516.44;;;3.11;100.00
50093;BME280;35974;47.752;10.290;2023-03-18T00:51:42;93514.50;;;3.05;100.00
50093;BME280;35974;47.752;10.290;2023-03-18T00:54:11;93522.56;;;3.10;100.00
50093;BME280;35974;47.752;10.290;2023-03-18T00:56:39;93521.63;;;3.03;100.00
50093;BME280;35974;47.752;10.290;2023-03-18T00:59:08;93552.41;;;3.29;100.00
50093;BME280;35974;47.752;10.290;2023-03-18T01:01:35;93535.81;;;3.15;100.00
50093;BME280;35974;47.752;10.290;2023-03-18T01:04:02;93541.31;;;3.12;100.00
50093;BME280;35974;47.752;10.290;2023-03-18T01:06:31;93553.25;;;3.13;100.00
50093;BME280;35974;47.752;10.290;2023-03-18T01:09:00;93559.75;;;3.09;100.00
50093;BME280;35974;47.752;10.290;2023-03-18T01:11:30;93561.50;;;3.08;100.00
50093;BME280;35974;47.752;10.290;2023-03-18T01:13:57;93550.09;;;2.95;100.00
50093;BME280;35974;47.752;10.290;2023-03-18T01:16:25;93552.00;;;3.09;100.00
50093;BME280;35974;47.752;10.290;2023-03-18T01:18:52;93542.00;;;3.06;100.00
50093;BME280;35974;47.752;10.290;2023-03-18T01:21:19;93524.91;;;2.88;100.00
50093;BME280;35974;47.752;10.290;2023-03-18T01:23:46;93533.28;;;2.90;100.00
50093;BME280;35974;47.752;10.290;2023-03-18T01:26:12;93512.94;;;2.87;100.00
50093;BME280;35974;47.752;10.290;2023-03-18T01:28:39;93513.91;;;2.95;100.00
50093;BME280;35974;47.752;10.290;2023-03-18T01:31:06;93525.84;;;2.96;100.00
50093;BME280;35974;47.752;10.290;2023-03-18T01:33:33;93542.63;;;3.00;100.00
50093;BME280;35974;47.752;10.290;2023-03-18T01:36:01;93525.03;;;2.95;100.00
50093;BME280;35974;47.752;10.290;2023-03-18T01:38:29;93510.53;;;2.86;100.00
50093;BME280;35974;47.752;10.290;2023-03-18T01:40:57;93546.81;;;3.09;100.00
50093;BME280;35974;47.752;10.290;2023-03-18T01:43:27;93524.25;;;2.95;100.00
50093;BME280;35974;47.752;10.290;2023-03-18T01:45:56;93518.63;;;2.83;100.00
50093;BME280;35974;47.752;10.290;2023-03-18T01:48:27;93541.84;;;2.99;100.00
50093;BME280;35974;47.752;10.290;2023-03-18T01:50:58;93536.84;;;2.89;100.00
50093;BME280;35974;47.752;10.290;2023-03-18T01:53:28;93528.59;;;2.86;100.00
50093;BME280;35974;47.752;10.290;2023-03-18T01:55:57;93533.47;;;2.81;100.00
50093;BME280;35974;47.752;10.290;2023-03-18T01:58:31;93525.56;;;2.82;100.00
50093;BME280;35974;47.752;10.290;2023-03-18T02:01:08;93537.78;;;3.05;100.00
50093;BME280;35974;47.752;10.290;2023-03-18T02:03:40;93530.41;;;2.85;100.00
50093;BME280;35974;47.752;10.290;2023-03-18T02:06:08;93539.09;;;2.84;100.00
50093;BME280;35974;47.752;10.290;2023-03-18T02:08:37;93538.47;;;2.82;100.00
50093;BME280;35974;47.752;10.290;2023-03-18T02:11:06;93557.53;;;2.89;100.00
50093;BME280;35974;47.752;10.290;2023-03-18T02:13:38;93551.69;;;2.96;100.00
50093;BME280;35974;47.752;10.290;2023-03-18T02:16:11;93554.59;;;3.01;100.00
50093;BME280;35974;47.752;10.290;2023-03-18T02:18:43;93554.00;;;2.74;100.00
50093;BME280;35974;47.752;10.290;2023-03-18T02:24:23;93556.59;;;2.66;100.00
50093;BME280;35974;47.752;10.290;2023-03-18T02:29:27;93559.50;;;2.63;100.00
50093;BME280;35974;47.752;10.290;2023-03-18T02:31:57;93537.56;;;2.42;100.00
50093;BME280;35974;47.752;10.290;2023-03-18T02:34:27;93560.81;;;2.59;100.00
50093;BME280;35974;47.752;10.290;2023-03-18T02:36:54;93552.41;;;2.40;100.00
50093;BME280;35974;47.752;10.290;2023-03-18T02:39:22;93564.19;;;2.51;100.00
50093;BME280;35974;47.752;10.290;2023-03-18T02:41:49;93551.75;;;2.63;100.00
50093;BME280;35974;47.752;10.290;2023-03-18T02:44:17;93533.06;;;2.36;100.00
50093;BME280;35974;47.752;10.290;2023-03-18T02:46:51;93554.63;;;2.68;100.00
50093;BME280;35974;47.752;10.290;2023-03-18T02:49:20;93535.94;;;2.33;100.00
50093;BME280;35974;47.752;10.290;2023-03-18T02:51:48;93534.31;;;2.48;100.00
50093;BME280;35974;47.752;10.290;2023-03-18T02:54:21;93524.31;;;2.29;100.00
50093;BME280;35974;47.752;10.290;2023-03-18T02:56:48;93553.84;;;2.51;100.00
50093;BME280;35974;47.752;10.290;2023-03-18T02:59:15;93540.13;;;2.59;100.00
50093;BME280;35974;47.752;10.290;2023-03-18T03:02:17;93553.84;;;2.51;100.00
50093;BME280;35974;47.752;10.290;2023-03-18T03:04:44;93554.66;;;2.43;100.00
50093;BME280;35974;47.752;10.290;2023-03-18T03:07:10;93526.09;;;2.20;100.00
50093;BME280;35974;47.752;10.290;2023-03-18T03:09:37;93545.28;;;2.26;100.00
50093;BME280;35974;47.752;10.290;2023-03-18T03:12:04;93541.75;;;2.10;100.00
50093;BME280;35974;47.752;10.290;2023-03-18T03:14:30;93552.41;;;2.24;100.00
50093;BME280;35974;47.752;10.290;2023-03-18T03:16:57;93543.00;;;1.98;100.00
50093;BME280;35974;47.752;10.290;2023-03-18T03:19:24;93565.28;;;2.07;100.00
50093;BME280;35974;47.752;10.290;2023-03-18T03:21:51;93553.66;;;1.95;100.00
50093;BME280;35974;47.752;10.290;2023-03-18T03:24:17;93570.13;;;2.02;100.00
50093;BME280;35974;47.752;10.290;2023-03-18T03:26:43;93558.94;;;1.85;100.00
50093;BME280;35974;47.752;10.290;2023-03-18T03:29:15;93561.91;;;2.07;100.00
50093;BME280;35974;47.752;10.290;2023-03-18T03:31:41;93563.00;;;1.88;100.00
50093;BME280;35974;47.752;10.290;2023-03-18T03:34:08;93568.78;;;1.81;100.00
50093;BME280;35974;47.752;10.290;2023-03-18T03:36:35;93570.13;;;1.94;100.00
50093;BME280;35974;47.752;10.290;2023-03-18T03:39:01;93551.38;;;1.83;100.00
50093;BME280;35974;47.752;10.290;2023-03-18T03:41:29;93572.69;;;1.94;100.00
50093;BME280;35974;47.752;10.290;2023-03-18T03:43:55;93568.66;;;1.91;100.00
50093;BME280;35974;47.752;10.290;2023-03-18T03:46:22;93557.22;;;1.94;100.00
50093;BME280;35974;47.752;10.290;2023-03-18T03:48:48;93549.81;;;1.99;100.00
50093;BME280;35974;47.752;10.290;2023-03-18T03:51:15;93564.03;;;2.11;100.00
50093;BME280;35974;47.752;10.290;2023-03-18T03:53:42;93570.44;;;1.99;100.00
50093;BME280;35974;47.752;10.290;2023-03-18T03:56:20;93563.34;;;2.17;100.00
50093;BME280;35974;47.752;10.290;2023-03-18T03:58:47;93569.97;;;2.12;100.00
50093;BME280;35974;47.752;10.290;2023-03-18T04:01:14;93562.72;;;2.07;100.00
50093;BME280;35974;47.752;10.290;2023-03-18T04:03:40;93568.50;;;2.01;100.00
50093;BME280;35974;47.752;10.290;2023-03-18T04:06:07;93558.19;;;2.01;100.00
50093;BME280;35974;47.752;10.290;2023-03-18T04:08:34;93571.09;;;2.09;100.00
50093;BME280;35974;47.752;10.290;2023-03-18T04:11:00;93551.91;;;2.04;100.00
50093;BME280;35974;47.752;10.290;2023-03-18T04:13:29;93550.44;;;2.09;100.00
50093;BME280;35974;47.752;10.290;2023-03-18T04:15:56;93563.53;;;2.24;100.00
50093;BME280;35974;47.752;10.290;2023-03-18T04:18:22;93553.50;;;2.13;100.00
50093;BME280;35974;47.752;10.290;2023-03-18T04:20:49;93567.72;;;2.25;100.00
50093;BME280;35974;47.752;10.290;2023-03-18T04:23:15;93584.69;;;2.28;100.00
50093;BME280;35974;47.752;10.290;2023-03-18T04:25:42;93575.78;;;2.30;100.00
50093;BME280;35974;47.752;10.290;2023-03-18T04:28:08;93570.78;;;2.29;100.00
50093;BME280;35974;47.752;10.290;2023-03-18T04:30:35;93567.41;;;2.36;100.00
50093;BME280;35974;47.752;10.290;2023-03-18T04:33:01;93573.22;;;2.47;100.00
50093;BME280;35974;47.752;10.290;2023-03-18T04:35:28;93539.66;;;2.22;100.00
50093;BME280;35974;47.752;10.290;2023-03-18T04:37:55;93556.13;;;2.29;100.00
50093;BME280;35974;47.752;10.290;2023-03-18T04:40:22;93583.88;;;2.44;100.00
50093;BME280;35974;47.752;10.290;2023-03-18T04:42:48;93561.78;;;2.33;100.00
50093;BME280;35974;47.752;10.290;2023-03-18T04:45:16;93559.50;;;2.30;100.00
50093;BME280;35974;47.752;10.290;2023-03-18T04:47:43;93572.72;;;2.27;100.00
50093;BME280;35974;47.752;10.290;2023-03-18T04:50:11;93574.69;;;2.25;100.00
50093;BME280;35974;47.752;10.290;2023-03-18T04:52:39;93571.09;;;2.17;100.00
50093;BME280;35974;47.752;10.290;2023-03-18T04:55:06;93553.34;;;2.14;100.00
50093;BME280;35974;47.752;10.290;2023-03-18T04:57:34;93545.59;;;2.06;100.00
50093;BME280;35974;47.752;10.290;2023-03-18T05:00:06;93538.84;;;2.05;100.00
50093;BME280;35974;47.752;10.290;2023-03-18T05:02:37;93550.81;;;2.23;100.00
50093;BME280;35974;47.752;10.290;2023-03-18T05:05:04;93538.53;;;2.08;100.00
50093;BME280;35974;47.752;10.290;2023-03-18T05:07:31;93546.28;;;2.16;100.00
50093;BME280;35974;47.752;10.290;2023-03-18T05:09:58;93530.28;;;2.13;100.00
50093;BME280;35974;47.752;10.290;2023-03-18T05:12:25;93534.66;;;2.12;100.00
50093;BME280;35974;47.752;10.290;2023-03-18T05:14:51;93553.69;;;2.11;100.00
50093;BME280;35974;47.752;10.290;2023-03-18T05:17:18;93544.97;;;2.04;100.00
50093;BME280;35974;47.752;10.290;2023-03-18T05:19:55;93544.50;;;2.09;100.00
50093;BME280;35974;47.752;10.290;2023-03-18T05:22:22;93547.91;;;2.50;100.00
50093;BME280;35974;47.752;10.290;2023-03-18T05:24:48;93546.59;;;2.30;100.00
50093;BME280;35974;47.752;10.290;2023-03-18T05:27:16;93544.97;;;2.29;100.00
50093;BME280;35974;47.752;10.290;2023-03-18T05:29:44;93568.88;;;2.47;100.00
50093;BME280;35974;47.752;10.290;2023-03-18T05:32:11;93557.88;;;2.53;100.00
50093;BME280;35974;47.752;10.290;2023-03-18T05:34:40;93560.66;;;2.52;100.00
50093;BME280;35974;47.752;10.290;2023-03-18T05:37:08;93580.47;;;2.60;100.00
50093;BME280;35974;47.752;10.290;2023-03-18T05:39:35;93581.78;;;2.55;100.00
50093;BME280;35974;47.752;10.290;2023-03-18T05:42:02;93563.38;;;2.34;100.00
50093;BME280;35974;47.752;10.290;2023-03-18T05:44:30;93570.16;;;2.35;100.00
50093;BME280;35974;47.752;10.290;2023-03-18T05:46:56;93562.41;;;2.27;100.00
50093;BME280;35974;47.752;10.290;2023-03-18T05:49:23;93549.50;;;2.18;100.00
50093;BME280;35974;47.752;10.290;2023-03-18T05:51:50;93554.00;;;2.08;100.00
50093;BME280;35974;47.752;10.290;2023-03-18T05:54:19;93557.56;;;2.07;100.00
50093;BME280;35974;47.752;10.290;2023-03-18T05:56:46;93540.44;;;2.06;100.00
50093;BME280;35974;47.752;10.290;2023-03-18T05:59:13;93565.00;;;2.35;100.00
50093;BME280;35974;47.752;10.290;2023-03-18T06:01:40;93575.31;;;2.51;100.00
50093;BME280;35974;47.752;10.290;2023-03-18T06:04:07;93526.59;;;2.32;100.00
50093;BME280;35974;47.752;10.290;2023-03-18T06:06:34;93542.72;;;2.34;100.00
50093;BME280;35974;47.752;10.290;2023-03-18T06:09:03;93542.38;;;2.37;100.00
50093;BME280;35974;47.752;10.290;2023-03-18T06:11:29;93570.94;;;2.44;100.00
50093;BME280;35974;47.752;10.290;2023-03-18T06:13:56;93573.72;;;2.50;100.00
50093;BME280;35974;47.752;10.290;2023-03-18T06:16:23;93551.44;;;2.41;100.00
50093;BME280;35974;47.752;10.290;2023-03-18T06:18:51;93584.06;;;2.59;100.00
50093;BME280;35974;47.752;10.290;2023-03-18T06:21:17;93564.66;;;2.54;100.00
50093;BME280;35974;47.752;10.290;2023-03-18T06:23:44;93569.19;;;2.61;100.00
50093;BME280;35974;47.752;10.290;2023-03-18T06:26:10;93567.56;;;2.68;100.00
50093;BME280;35974;47.752;10.290;2023-03-18T06:28:36;93563.38;;;2.75;100.00
50093;BME280;35974;47.752;10.290;2023-03-18T06:31:03;93564.97;;;2.68;100.00
50093;BME280;35974;47.752;10.290;2023-03-18T06:33:30;93581.44;;;2.91;100.00
50093;BME280;35974;47.752;10.290;2023-03-18T06:35:58;93577.22;;;2.90;100.00
50093;BME280;35974;47.752;10.290;2023-03-18T06:38:25;93569.94;;;2.94;100.00
50093;BME280;35974;47.752;10.290;2023-03-18T06:40:54;93562.03;;;2.96;100.00
50093;BME280;35974;47.752;10.290;2023-03-18T06:43:22;93570.09;;;3.09;100.00
50093;BME280;35974;47.752;10.290;2023-03-18T06:45:48;93543.00;;;2.88;100.00
50093;BME280;35974;47.752;10.290;2023-03-18T06:48:17;93576.84;;;3.18;100.00
50093;BME280;35974;47.752;10.290;2023-03-18T06:50:43;93582.31;;;3.32;100.00
50093;BME280;35974;47.752;10.290;2023-03-18T06:53:10;93571.44;;;3.36;100.00
50093;BME280;35974;47.752;10.290;2023-03-18T06:55:38;93545.16;;;3.24;100.00
50093;BME280;35974;47.752;10.290;2023-03-18T06:58:04;93586.41;;;3.57;100.00
50093;BME280;35974;47.752;10.290;2023-03-18T07:00:31;93572.50;;;3.58;100.00
50093;BME280;35974;47.752;10.290;2023-03-18T07:02:59;93573.44;;;3.65;100.00
50093;BME280;35974;47.752;10.290;2023-03-18T07:05:27;93557.56;;;3.69;100.00
50093;BME280;35974;47.752;10.290;2023-03-18T07:07:53;93585.94;;;3.93;100.00
50093;BME280;35974;47.752;10.290;2023-03-18T07:10:23;93588.47;;;4.01;100.00
50093;BME280;35974;47.752;10.290;2023-03-18T07:12:50;93591.66;;;4.12;100.00
50093;BME280;35974;47.752;10.290;2023-03-18T07:15:18;93588.97;;;4.28;100.00
50093;BME280;35974;47.752;10.290;2023-03-18T07:17:48;93588.50;;;4.48;100.00
50093;BME280;35974;47.752;10.290;2023-03-18T07:20:16;93572.38;;;4.37;100.00
50093;BME280;35974;47.752;10.290;2023-03-18T07:22:44;93591.97;;;4.63;100.00
50093;BME280;35974;47.752;10.290;2023-03-18T07:25:12;93583.34;;;4.63;100.00
50093;BME280;35974;47.752;10.290;2023-03-18T07:27:39;93571.22;;;4.63;100.00
50093;BME280;35974;47.752;10.290;2023-03-18T07:30:08;93591.13;;;4.86;100.00
50093;BME280;35974;47.752;10.290;2023-03-18T07:32:37;93593.34;;;4.89;100.00
50093;BME280;35974;47.752;10.290;2023-03-18T07:35:04;93582.75;;;5.13;100.00
50093;BME280;35974;47.752;10.290;2023-03-18T07:37:32;93590.66;;;5.35;100.00
50093;BME280;35974;47.752;10.290;2023-03-18T07:39:58;93572.56;;;5.27;100.00
50093;BME280;35974;47.752;10.290;2023-03-18T07:42:25;93565.22;;;5.45;100.00
50093;BME280;35974;47.752;10.290;2023-03-18T07:44:52;93566.13;;;5.53;100.00
50093;BME280;35974;47.752;10.290;2023-03-18T07:47:18;93573.16;;;5.59;100.00
50093;BME280;35974;47.752;10.290;2023-03-18T07:49:46;93582.53;;;5.90;100.00
50093;BME280;35974;47.752;10.290;2023-03-18T07:52:13;93570.19;;;5.92;100.00
50093;BME280;35974;47.752;10.290;2023-03-18T07:54:39;93559.72;;;5.85;100.00
50093;BME280;35974;47.752;10.290;2023-03-18T07:57:06;93580.03;;;6.11;100.00
50093;BME280;35974;47.752;10.290;2023-03-18T07:59:33;93577.31;;;6.19;100.00
50093;BME280;35974;47.752;10.290;2023-03-18T08:01:59;93591.94;;;6.42;100.00
50093;BME280;35974;47.752;10.290;2023-03-18T08:04:26;93593.69;;;6.56;100.00
50093;BME280;35974;47.752;10.290;2023-03-18T08:06:53;93597.69;;;6.37;100.00
50093;BME280;35974;47.752;10.290;2023-03-18T08:09:20;93559.38;;;6.25;100.00
50093;BME280;35974;47.752;10.290;2023-03-18T08:11:47;93572.72;;;6.21;100.00
50093;BME280;35974;47.752;10.290;2023-03-18T08:14:14;93575.09;;;6.38;100.00
50093;BME280;35974;47.752;10.290;2023-03-18T08:16:42;93585.88;;;6.56;100.00
50093;BME280;35974;47.752;10.290;2023-03-18T08:19:12;93584.63;;;6.74;100.00
50093;BME280;35974;47.752;10.290;2023-03-18T08:21:41;93587.09;;;6.82;100.00
50093;BME280;35974;47.752;10.290;2023-03-18T08:24:10;93574.22;;;6.74;100.00
50093;BME280;35974;47.752;10.290;2023-03-18T08:26:38;93586.94;;;7.12;100.00
50093;BME280;35974;47.752;10.290;2023-03-18T08:29:05;93572.69;;;7.08;100.00
50093;BME280;35974;47.752;10.290;2023-03-18T08:31:31;93585.03;;;7.27;100.00
50093;BME280;35974;47.752;10.290;2023-03-18T08:33:58;93581.88;;;7.39;100.00
50093;BME280;35974;47.752;10.290;2023-03-18T08:36:25;93590.78;;;7.51;100.00
50093;BME280;35974;47.752;10.290;2023-03-18T08:38:55;93577.16;;;7.49;100.00
50093;BME280;35974;47.752;10.290;2023-03-18T08:41:22;93599.47;;;7.72;100.00
50093;BME280;35974;47.752;10.290;2023-03-18T08:43:52;93582.88;;;7.73;100.00
50093;BME280;35974;47.752;10.290;2023-03-18T08:46:28;93583.38;;;7.96;100.00
50093;BME280;35974;47.752;10.290;2023-03-18T08:48:55;93607.53;;;8.32;100.00
50093;BME280;35974;47.752;10.290;2023-03-18T08:51:22;93582.69;;;8.29;100.00
50093;BME280;35974;47.752;10.290;2023-03-18T08:53:48;93582.75;;;8.56;100.00
50093;BME280;35974;47.752;10.290;2023-03-18T08:56:15;93583.59;;;8.63;100.00
50093;BME280;35974;47.752;10.290;2023-03-18T08:58:42;93593.25;;;8.96;100.00
50093;BME280;35974;47.752;10.290;2023-03-18T09:01:13;93587.63;;;8.99;100.00
50093;BME280;35974;47.752;10.290;2023-03-18T09:03:40;93575.19;;;9.01;100.00
50093;BME280;35974;47.752;10.290;2023-03-18T09:06:07;93582.81;;;9.29;100.00
50093;BME280;35974;47.752;10.290;2023-03-18T09:08:34;93567.97;;;9.16;100.00
50093;BME280;35974;47.752;10.290;2023-03-18T09:11:01;93582.41;;;9.39;100.00
50093;BME280;35974;47.752;10.290;2023-03-18T09:13:33;93589.94;;;9.74;100.00
50093;BME280;35974;47.752;10.290;2023-03-18T09:16:02;93571.28;;;9.64;100.00
50093;BME280;35974;47.752;10.290;2023-03-18T09:18:55;93581.00;;;10.02;100.00
50093;BME280;35974;47.752;10.290;2023-03-18T09:21:21;93556.31;;;9.98;100.00
50093;BME280;35974;47.752;10.290;2023-03-18T09:23:49;93556.44;;;10.10;99.12
50093;BME280;35974;47.752;10.290;2023-03-18T09:26:17;93549.09;;;10.32;97.77
50093;BME280;35974;47.752;10.290;2023-03-18T09:28:44;93556.28;;;10.43;96.21
50093;BME280;35974;47.752;10.290;2023-03-18T09:31:14;93553.34;;;10.65;95.51
50093;BME280;35974;47.752;10.290;2023-03-18T09:33:55;93549.22;;;10.82;95.37
50093;BME280;35974;47.752;10.290;2023-03-18T09:36:38;93546.66;;;11.01;90.52
50093;BME280;35974;47.752;10.290;2023-03-18T09:39:06;93547.16;;;11.34;88.62
50093;BME280;35974;47.752;10.290;2023-03-18T09:44:29;93534.38;;;11.63;86.55
50093;BME280;35974;47.752;10.290;2023-03-18T09:52:32;93555.22;;;12.14;83.76
50093;BME280;35974;47.752;10.290;2023-03-18T09:55:16;93553.69;;;12.36;84.30
50093;BME280;35974;47.752;10.290;2023-03-18T09:57:48;93538.22;;;12.47;83.82
50093;BME280;35974;47.752;10.290;2023-03-18T10:00:40;93547.00;;;12.82;80.43
50093;BME280;35974;47.752;10.290;2023-03-18T10:03:23;93543.38;;;13.07;69.50
50093;BME280;35974;47.752;10.290;2023-03-18T10:06:26;93515.75;;;13.16;65.71
50093;BME280;35974;47.752;10.290;2023-03-18T10:11:30;93511.66;;;13.44;60.06
50093;BME280;35974;47.752;10.290;2023-03-18T10:17:05;93530.53;;;14.05;51.26
50093;BME280;35974;47.752;10.290;2023-03-18T10:19:56;93526.19;;;14.28;44.96
50093;BME280;35974;47.752;10.290;2023-03-18T10:22:54;93533.78;;;14.53;43.39
50093;BME280;35974;47.752;10.290;2023-03-18T10:33:18;93516.13;;;15.16;42.35
50093;BME280;35974;47.752;10.290;2023-03-18T10:36:03;93485.81;;;14.97;41.98
50093;BME280;35974;47.752;10.290;2023-03-18T10:38:34;93509.56;;;15.19;42.41
50093;BME280;35974;47.752;10.290;2023-03-18T10:41:13;93488.09;;;15.27;41.17
50093;BME280;35974;47.752;10.290;2023-03-18T10:43:51;93475.22;;;15.14;40.99
50093;BME280;35974;47.752;10.290;2023-03-18T10:46:20;93490.41;;;15.24;39.49
50093;BME280;35974;47.752;10.290;2023-03-18T10:49:11;93473.72;;;15.18;41.39
50093;BME280;35974;47.752;10.290;2023-03-18T10:51:46;93472.97;;;15.40;40.87
50093;BME280;35974;47.752;10.290;2023-03-18T10:54:48;93474.75;;;15.17;42.09
50093;BME280;35974;47.752;10.290;2023-03-18T10:57:19;93471.72;;;15.25;41.61
50093;BME280;35974;47.752;10.290;2023-03-18T10:59:48;93470.38;;;15.06;42.26
50093;BME280;35974;47.752;10.290;2023-03-18T11:02:29;93475.53;;;15.34;41.89
50093;BME280;35974;47.752;10.290;2023-03-18T11:05:01;93494.06;;;15.40;41.40
50093;BME280;35974;47.752;10.290;2023-03-18T11:07:32;93464.03;;;15.41;39.79
50093;BME280;35974;47.752;10.290;2023-03-18T11:10:22;93490.53;;;15.51;40.92
50093;BME280;35974;47.752;10.290;2023-03-18T11:13:01;93485.25;;;15.51;40.76
50093;BME280;35974;47.752;10.290;2023-03-18T11:15:55;93495.13;;;15.38;40.83
50093;BME280;35974;47.752;10.290;2023-03-18T11:18:24;93480.19;;;15.27;41.44
50093;BME280;35974;47.752;10.290;2023-03-18T11:20:55;93481.53;;;15.30;41.13
50093;BME280;35974;47.752;10.290;2023-03-18T11:23:33;93486.84;;;15.52;42.50
50093;BME280;35974;47.752;10.290;2023-03-18T11:26:23;93462.69;;;15.60;40.80
50093;BME280;35974;47.752;10.290;2023-03-18T11:29:07;93482.72;;;15.78;41.26
50093;BME280;35974;47.752;10.290;2023-03-18T11:31:52;93495.31;;;15.54;41.38
50093;BME280;35974;47.752;10.290;2023-03-18T11:34:28;93492.59;;;15.49;40.67
50093;BME280;35974;47.752;10.290;2023-03-18T11:37:09;93496.06;;;15.71;41.31
50093;BME280;35974;47.752;10.290;2023-03-18T11:39:39;93490.81;;;15.54;41.51
50093;BME280;35974;47.752;10.290;2023-03-18T11:42:20;93477.41;;;15.56;39.14
50093;BME280;35974;47.752;10.290;2023-03-18T11:44:53;93482.91;;;15.32;41.02
50093;BME280;35974;47.752;10.290;2023-03-18T11:47:34;93473.59;;;15.47;39.51
50093;BME280;35974;47.752;10.290;2023-03-18T11:50:02;93442.09;;;15.57;40.38
50093;BME280;35974;47.752;10.290;2023-03-18T11:56:04;93461.59;;;16.00;38.80
50093;BME280;35974;47.752;10.290;2023-03-18T11:58:29;93466.19;;;16.37;38.97
50093;BME280;35974;47.752;10.290;2023-03-18T12:06:21;93455.41;;;16.71;38.15
50093;BME280;35974;47.752;10.290;2023-03-18T12:14:19;93431.81;;;16.87;37.12
50093;BME280;35974;47.752;10.290;2023-03-18T12:17:18;93424.91;;;16.86;36.82
50093;BME280;35974;47.752;10.290;2023-03-18T12:25:34;93432.13;;;16.36;37.26
50093;BME280;35974;47.752;10.290;2023-03-18T12:36:52;93419.94;;;16.62;36.89
50093;BME280;35974;47.752;10.290;2023-03-18T12:41:37;93402.84;;;16.37;36.95
50093;BME280;35974;47.752;10.290;2023-03-18T12:46:47;93395.28;;;16.46;36.10
50093;BME280;35974;47.752;10.290;2023-03-18T12:52:25;93406.09;;;17.14;34.67
50093;BME280;35974;47.752;10.290;2023-03-18T12:58:17;93418.88;;;17.33;34.63
50093;BME280;35974;47.752;10.290;2023-03-18T13:00:57;93410.41;;;17.31;35.44
50093;BME280;35974;47.752;10.290;2023-03-18T13:03:32;93418.72;;;17.12;35.91
50093;BME280;35974;47.752;10.290;2023-03-18T13:06:05;93414.78;;;17.15;35.02
50093;BME280;35974;47.752;10.290;2023-03-18T13:14:14;93389.38;;;17.62;35.05
50093;BME280;35974;47.752;10.290;2023-03-18T13:16:43;93386.13;;;17.49;35.27
50093;BME280;35974;47.752;10.290;2023-03-18T13:19:09;93382.81;;;17.16;35.01
50093;BME280;35974;47.752;10.290;2023-03-18T13:21:59;93403.00;;;17.33;36.11
50093;BME280;35974;47.752;10.290;2023-03-18T13:30:37;93393.53;;;17.47;35.05
50093;BME280;35974;47.752;10.290;2023-03-18T13:38:42;93392.69;;;17.36;36.18
50093;BME280;35974;47.752;10.290;2023-03-18T13:44:19;93359.47;;;16.98;36.51
50093;BME280;35974;47.752;10.290;2023-03-18T13:47:02;93388.88;;;17.65;36.43
50093;BME280;35974;47.752;10.290;2023-03-18T13:49:31;93366.59;;;17.50;35.22
50093;BME280;35974;47.752;10.290;2023-03-18T13:52:00;93357.66;;;17.67;35.93
50093;BME280;35974;47.752;10.290;2023-03-18T13:54:33;93365.69;;;17.98;35.26
50093;BME280;35974;47.752;10.290;2023-03-18T13:59:45;93369.69;;;18.00;35.53
50093;BME280;35974;47.752;10.290;2023-03-18T14:05:33;93370.72;;;18.04;34.32
50093;BME280;35974;47.752;10.290;2023-03-18T14:08:31;93367.44;;;17.71;34.38
50093;BME280;35974;47.752;10.290;2023-03-18T14:13:49;93365.31;;;17.63;34.57
50093;BME280;35974;47.752;10.290;2023-03-18T14:19:25;93362.53;;;17.32;35.95
50093;BME280;35974;47.752;10.290;2023-03-18T14:22:16;93357.78;;;17.34;34.91
50093;BME280;35974;47.752;10.290;2023-03-18T14:24:45;93358.06;;;17.38;34.24
50093;BME280;35974;47.752;10.290;2023-03-18T14:27:16;93377.94;;;17.51;35.30
50093;BME280;35974;47.752;10.290;2023-03-18T14:29:46;93373.94;;;17.43;35.70
50093;BME280;35974;47.752;10.290;2023-03-18T14:32:35;93350.59;;;17.19;35.21
50093;BME280;35974;47.752;10.290;2023-03-18T14:35:23;93360.69;;;17.33;35.95
50093;BME280;35974;47.752;10.290;2023-03-18T14:38:13;93370.13;;;17.18;35.79
50093;BME280;35974;47.752;10.290;2023-03-18T14:40:46;93359.09;;;17.32;35.32
50093;BME280;35974;47.752;10.290;2023-03-18T14:43:24;93346.03;;;17.10;36.32
50093;BME280;35974;47.752;10.290;2023-03-18T14:45:57;93329.44;;;17.25;36.12